Edgar Albert Guest

(20 August 1881 - 5 August 1959 / Birmingham / England)

Stats

» Click to list general statistics » OR, select a date :

General Statistics

Visitors of the poet

Number of visitors of the poet’s mainpage in PoemHunter.Com

Attention : Numbers in this table does not indicate the total hits of poems of the poet, but indicates the hits of the poet’s main page.

Date Hits
06/29/2015 Monday 389
37%
06/28/2015 Sunday 461
43%
06/27/2015 Saturday 473
45%
06/26/2015 Friday 362
34%
06/25/2015 Thursday 470
44%
06/24/2015 Wednesday 604
57%
06/23/2015 Tuesday 493
46%
06/22/2015 Monday 779
74%
06/21/2015 Sunday 1050
100%
06/20/2015 Saturday 948
90%
06/19/2015 Friday 1006
95%
06/18/2015 Thursday 843
80%
06/17/2015 Wednesday 914
87%
06/16/2015 Tuesday 777
74%
06/15/2015 Monday 777
74%
06/14/2015 Sunday 1050
100%
06/13/2015 Saturday 857
81%
06/12/2015 Friday 903
86%
06/11/2015 Thursday 590
56%
06/10/2015 Wednesday 645
61%

Reader rating & num.of MyPoemList’s

Click the captions of columns to change the order.

# Poem Title Submit Date Reader Rating Num.of MyPoemList’s
Rating Num.R.
1 A Friend 07/11/2014 10.0 1 0
2 A Christmas Carol 07/11/2014 10.0 1 0
3 Sermons We See 07/11/2014 10.0 1 0
4 What We Need 07/11/2014 10.0 1 1
5 When Day Is Done 07/11/2014 10.0 1 0
6 Life's Canvas 07/11/2014 10.0 1 1
7 Myself 07/12/2014 10.0 1 1
8 Home 07/12/2014 10.0 1 0
9 Improvement 07/12/2014 10.0 1 1
10 The Obligation Of Friendship 07/14/2014 10.0 1 0
11 At Christmas 07/15/2014 10.0 1 1
12 The Living Beauties 07/12/2014 10.0 1 0
13 Money 08/20/2014 10.0 1 0
14 Gratitude 07/14/2014 10.0 1 0
15 The Tragedy Of Age 08/14/2014 10.0 1 0
16 My Religion 08/14/2014 10.0 1 0
17 Only A Dad 03/03/2015 9.0 1 0
18 Mother 07/11/2014 9.0 1 0
19 Men And Dreamers 08/26/2014 9.0 1 0
20 A Baby's Love 08/14/2014 9.0 1 1
21 A Friend's Greeting 08/20/2014 9.0 1 0
22 A Boy At Christmas 08/14/2014 9.0 1 1
23 Midnight In The Pantry 07/12/2014 9.0 1 0
24 A Boy's Tribute 07/12/2014 9.0 1 0
25 A Boy And His Dad 07/11/2014 9.0 1 0
26 A Boy And His Dog 07/11/2014 9.0 1 0
27 A Boost For Modern Methods 07/12/2014 8.0 1 0
28 Memory 07/12/2014 8.0 1 0
29 A Battle Prayer 08/14/2014 8.0 1 0
30 The Unknown Friends 08/14/2014 8.0 1 0
31 A Choice 08/14/2014 8.0 1 0
32 A Breach Of Friendship 08/14/2014 8.0 1 0
33 A Child Of Mine 07/11/2014 7.0 1 0
34 Selfish 07/12/2014 7.0 1 0
35 A Bear Story 07/14/2014 7.0 1 0
36 A Family Row 08/14/2014 5.0 1 0
37 When Father Shook The Stove 03/29/2010 9.0 2 1
38 Yesterday 01/01/2004 10.0 3 60
39 The Little Orphan 01/01/2004 9.8 6 45
40 Reflection 03/29/2010 6.3 12 1
41 The Alarm 03/29/2010 5.1 11 2
42 Drafted 03/29/2010 5.1 11 0
43 Grace At Evening 03/29/2010 5.1 11 2
44 Selfishness 03/29/2010 5.5 12 2
45 Compensation 03/29/2010 5.4 12 1
46 Follow A Famous Father 03/29/2010 5.8 13 3
47 The Kick Under The Table 03/29/2010 5.1 12 4
48 Show Me! 03/29/2010 5.5 13 6
49 The Bachelor's Soliloquy 01/01/2004 6.5 16 39
50 Move We Adjourn 03/29/2010 5.2 13 1
51 Ideals 03/29/2010 5.5 14 2
52 A Christmas Greeting 03/29/2010 6.1 16 1
53 Father 01/01/2004 6.0 16 60
54 Thanksgiving 01/01/2004 6.6 18 45
55 Peace 03/29/2010 4.9 14 2
56 I See You'Ve Travelled Some 03/29/2010 5.1 15 1
57 A Father's Prayer 03/29/2010 5.8 17 6
58 If You Would Please Me 03/29/2010 4.9 16 2
59 Life's Slacker 03/29/2010 4.9 16 3
60 Hard Luck 01/01/2004 6.1 20 57
61 On Quitting 01/01/2004 6.3 21 73
62 A Toast To The Men 01/01/2004 4.9 17 49
63 He Who Serves 03/29/2010 5.3 19 4
64 See It Through 01/01/2004 8.0 50 155
65 The Lamb Skin 03/29/2010 -- 0 0
66 The Proof Of Worth 03/29/2010 -- 0 2
67 The Temple - What Makes It Of Worth 03/29/2010 -- 0 0
68 The Wrist Watch Man 03/29/2010 -- 0 1
69 Things Work Out 03/29/2010 -- 0 8
70 It Couldn'T Be Done 01/08/2014 -- 0 3
71 Equipment 07/11/2014 -- 0 1
72 The Little Home 07/11/2014 -- 0 0
73 You 07/11/2014 -- 0 0
74 Checking The Day 07/11/2014 -- 0 0
75 The Path To Home 07/11/2014 -- 0 0
76 The Common Joys 07/11/2014 -- 0 0
77 What I Call Living 07/11/2014 -- 0 0
78 Forgotten Boyhood 07/11/2014 -- 0 0
79 Back Home 07/11/2014 -- 0 0
80 The Good Little Boy 07/11/2014 -- 0 0
81 The Cheat 07/11/2014 -- 0 0
82 The Dead Return 07/11/2014 -- 0 0
83 The Lay For The Troubled Golfer 07/11/2014 -- 0 0
84 Our House 07/11/2014 -- 0 0
85 Picture Books 07/11/2014 -- 0 0
86 Lines For A Flag Raising Ceremony 07/11/2014 -- 0 0
87 Lord, Make Me A Regular Man 07/11/2014 -- 0 0
88 Boy O' Mine 07/11/2014 -- 0 0
89 Folks 07/11/2014 -- 0 0
90 The Soldier On Crutches 07/11/2014 -- 0 1
91 If This Were All 07/11/2014 -- 0 0
92 The First Easter 07/11/2014 -- 0 0
93 A Creed 07/11/2014 -- 0 0
94 As We Prayed 07/11/2014 -- 0 0
95 Prayer For The Home 07/11/2014 -- 0 0
96 Good Books 07/11/2014 -- 0 0
97 A New Baby In The House 07/11/2014 -- 0 0
98 No Better Land Than This 07/11/2014 -- 0 0
99 No Children! 07/11/2014 -- 0 0
100 Home And The Office 07/11/2014 -- 0 0
101 When Sorrow Comes 07/11/2014 -- 0 0
102 The Future 07/11/2014 -- 0 0
103 Influence 07/11/2014 -- 0 0
104 A New Year's Plea 07/11/2014 -- 0 0
105 Baby Feet 07/11/2014 -- 0 0
106 When A Little Baby Dies 07/11/2014 -- 0 0
107 Courage, Courage, Courage! 07/11/2014 -- 0 0
108 Being Brave At Night 07/11/2014 -- 0 0
109 A Friend [2] 07/11/2014 -- 0 0
110 The Fifty-Per-Cent Man 07/11/2014 -- 0 0
111 The Best Land 07/11/2014 -- 0 0
112 Making The House A Home 07/11/2014 -- 0 0
113 I Mustn'T Forget 07/11/2014 -- 0 0
114 Faith 07/11/2014 -- 0 0
115 The Need 07/11/2014 -- 0 0
116 The Brethren 07/11/2014 -- 0 0
117 Just Like A Man 07/11/2014 -- 0 0
118 Father 07/11/2014 -- 0 0
119 The Joys We Miss 07/11/2014 -- 0 0
120 The Homely Man 07/11/2014 -- 0 0
121 The Inn-Keeper Makes Excuses 07/11/2014 -- 0 0
122 All That Matters 07/11/2014 -- 0 0
123 The Tears Expressive 07/11/2014 -- 0 0
124 The Family Doctor 07/11/2014 -- 0 0
125 Playing The Game 07/11/2014 -- 0 0
126 Bread And Gravy 07/12/2014 -- 0 0
127 Motherhood 07/12/2014 -- 0 0
128 Just Half Of That, Please 07/12/2014 -- 0 0
129 Forgetful Pa 07/12/2014 -- 0 0
130 Living 07/12/2014 -- 0 0
131 When The Young Are Grown 07/12/2014 -- 0 0
132 Mother And The Baby 07/12/2014 -- 0 0
133 Success 07/12/2014 -- 0 0
134 Ten Fingered Mice 07/12/2014 -- 0 0
135 Youth 07/12/2014 -- 0 0
136 Clinching The Bolt 07/12/2014 -- 0 0
137 The Lonely Old Fellow 07/12/2014 -- 0 0
138 Playing For Keeps 07/12/2014 -- 0 0
139 A Warm House And A Ruddy Fire 07/12/2014 -- 0 0
140 The Boy's Ideal 07/12/2014 -- 0 0
141 Unchangeable Mother 07/12/2014 -- 0 0
142 The Harder Part 07/12/2014 -- 0 0
143 Accomplished Care 07/12/2014 -- 0 0
144 The Newspaper Man 07/12/2014 -- 0 0
145 The Common Touch 07/12/2014 -- 0 0
146 Little Feet 07/12/2014 -- 0 0
147 To A Young Man 07/12/2014 -- 0 0
148 Denial 07/12/2014 -- 0 0
149 The Call 07/12/2014 -- 0 0
150 Service 07/12/2014 -- 0 0
151 Example 07/12/2014 -- 0 0
152 The Kindly Neighbor 07/12/2014 -- 0 0
153 Somebody Else 07/12/2014 -- 0 0
154 The Grate Fire 07/12/2014 -- 0 0
155 The Workman's Dream 07/12/2014 -- 0 0
156 The One In Ten 07/12/2014 -- 0 0
157 Winding The Clock 07/12/2014 -- 0 0
158 Until She Died 07/12/2014 -- 0 0
159 Effort 07/12/2014 -- 0 0
160 The Things They Musn'T Touch 07/12/2014 -- 0 0
161 Bulb Planting Time 07/12/2014 -- 0 0
162 His Other Chance 07/12/2014 -- 0 0
163 Marjorie 07/12/2014 -- 0 0
164 Fatherhood 07/12/2014 -- 0 0
165 Life 07/12/2014 -- 0 0
166 The Things They Mustn'T Touch 07/12/2014 -- 0 0
167 Hard Luck 07/12/2014 -- 0 0
168 On Quitting 07/12/2014 -- 0 1
169 Childless 07/12/2014 -- 0 0
170 The Crucible Of Life 07/12/2014 -- 0 0
171 Laughter 07/12/2014 -- 0 0
172 Signs 07/12/2014 -- 0 0
173 Constant Beauty 07/12/2014 -- 0 0
174 Departed Friends 07/12/2014 -- 0 0
175 A Fine Sight 07/12/2014 -- 0 0
176 Grown Up 07/12/2014 -- 0 0
177 Mothers' Excuses 07/12/2014 -- 0 0
178 Unimportant Differences 07/12/2014 -- 0 0
179 The Fishing Outfit 07/12/2014 -- 0 0
180 When Father Played Baseball 07/12/2014 -- 0 0
181 Since Jessie Died 07/12/2014 -- 0 0
182 To The Humble 07/12/2014 -- 0 0
183 The Summer Children 07/12/2014 -- 0 0
184 Out Fishin' 07/12/2014 -- 0 0
185 July The Fourth 07/12/2014 -- 0 0
186 The Silver Stripes 07/12/2014 -- 0 0
187 Hate 07/12/2014 -- 0 0
188 A Plea 07/12/2014 -- 0 0
189 The Big Deeds 07/12/2014 -- 0 0
190 The Gold Star 07/12/2014 -- 0 0
191 Prophecy 07/12/2014 -- 0 0
192 When The Drums Shall Cease To Beat 07/12/2014 -- 0 0
193 The Lonely Garden 07/12/2014 -- 0 0
194 Battle Of Belleau Wood 07/12/2014 -- 0 0
195 A Prayer, 1918 07/12/2014 -- 0 0
196 Christmas, 1918 07/12/2014 -- 0 0
197 It Couldn'T Be Done 07/12/2014 -- 0 0
198 God Made This Day For Me 07/11/2014 -- 0 0
199 Sausage 07/11/2014 -- 0 0
200 Old-Fashioned Letters 07/11/2014 -- 0 0
201 The Frosting Dish 07/11/2014 -- 0 0
202 Silent 07/11/2014 -- 0 0
203 He's Taken Out His Papers 07/11/2014 -- 0 0
204 On A Certain Religious Argument 07/11/2014 -- 0 0
205 No Room For Hate 07/11/2014 -- 0 0
206 The Scoutmaster 07/11/2014 -- 0 0
207 The Cookie Jar 07/11/2014 -- 0 0
208 When Mother Cooked With Wood 07/12/2014 -- 0 0
209 Sacrifice 07/12/2014 -- 0 0
210 Yesterday 07/12/2014 -- 0 0
211 The Important Thing 07/12/2014 -- 0 0
212 The Little Church 07/12/2014 -- 0 0
213 The Little Hurts 07/12/2014 -- 0 0
214 As It Goes 07/12/2014 -- 0 0
215 The Old, Old Story 07/12/2014 -- 0 0
216 Just Folks 07/12/2014 -- 0 0
217 Reward 07/12/2014 -- 0 0
218 The Scoffer 07/12/2014 -- 0 0
219 Daddies 07/12/2014 -- 0 0
220 Vacation Time 07/12/2014 -- 0 0
221 The Weaver 07/12/2014 -- 0 0
222 Show The Flag 07/12/2014 -- 0 0
223 Another Mouth To Feed 07/12/2014 -- 0 0
224 Friends 07/12/2014 -- 0 0
225 Toys 07/12/2014 -- 0 0
226 The Truth About Envy 07/12/2014 -- 0 0
227 The Job 07/12/2014 -- 0 0
228 The Lure That Failed 07/12/2014 -- 0 0
229 Curly Locks 07/12/2014 -- 0 0
230 Home And The Baby 07/12/2014 -- 0 0
231 The Old-Time Family 07/12/2014 -- 0 0
232 Loafing 07/12/2014 -- 0 0
233 The Roads Of Happiness 07/12/2014 -- 0 0
234 Hollyhocks 07/12/2014 -- 0 0
235 Songs Of Rejoicing 07/12/2014 -- 0 0
236 The Few 07/12/2014 -- 0 0
237 Manhood's Greeting 07/12/2014 -- 0 0
238 The Day Of Days 07/12/2014 -- 0 0
239 Fishing Nooks 07/12/2014 -- 0 0
240 At Pelletier's 07/12/2014 -- 0 0
241 The March Of Mortality 07/12/2014 -- 0 0
242 The World Is Against Me 07/12/2014 -- 0 0
243 The Man To Be 07/12/2014 -- 0 0
244 When Nellie's On The Job 07/12/2014 -- 0 0
245 A Father's Thoughts 07/12/2014 -- 0 0
246 The Home Builders 07/12/2014 -- 0 0
247 Send Her A Valentine 07/12/2014 -- 0 0
248 Growing Down 07/12/2014 -- 0 0
249 The Price Of Riches 07/12/2014 -- 0 0
250 My Books And I 07/12/2014 -- 0 0
251 The Auto 07/12/2014 -- 0 0
252 When Mother Sleeps 07/12/2014 -- 0 0
253 Questions 07/12/2014 -- 0 0
254 The Front Seat 07/12/2014 -- 0 0
255 The New Days 07/12/2014 -- 0 0
256 October 07/12/2014 -- 0 0
257 The Fisherman 07/12/2014 -- 0 0
258 There Are No Gods! 07/12/2014 -- 0 0
259 The Love Of The Game 07/12/2014 -- 0 0
260 The Handy Man 07/12/2014 -- 0 0
261 June 07/12/2014 -- 0 0
262 Sue's Got A Baby 07/12/2014 -- 0 0
263 Real Swimming 07/12/2014 -- 0 0
264 The Open Fire 07/12/2014 -- 0 0
265 The Other Fellow 07/12/2014 -- 0 0
266 Bud 07/12/2014 -- 0 0
267 We'Ve Had A Letter From The Boy 07/12/2014 -- 0 0
268 Warriors 07/12/2014 -- 0 0
269 The Mother Faith 07/12/2014 -- 0 0
270 Rebellion 07/12/2014 -- 0 0
271 About Boys 07/12/2014 -- 0 0
272 Roses And Sunshine 07/12/2014 -- 0 0
273 Baby's Got A Tooth 07/12/2014 -- 0 0
274 See It Through 07/12/2014 -- 0 0
275 My Creed 07/12/2014 -- 0 0
276 As Fall The Leaves 07/12/2014 -- 0 0
277 Tomorrow 07/12/2014 -- 0 0
278 Can'T 07/12/2014 -- 0 0
279 It's September 07/12/2014 -- 0 0
280 Success And Failure 07/12/2014 -- 0 0
281 A Wish 07/12/2014 -- 0 0
282 The Perfect Dinner Table 07/12/2014 -- 0 0
283 What A Baby Costs 07/12/2014 -- 0 0
284 How Do You Tackle Your Work 07/12/2014 -- 0 0
285 Life's Tests 07/12/2014 -- 0 0
286 Ma And The Auto 07/12/2014 -- 0 0
287 Courage 07/12/2014 -- 0 0
288 True Nobility 07/12/2014 -- 0 0
289 Our Duty To Our Flag 07/12/2014 -- 0 0
290 A Patriotic Wish 07/12/2014 -- 0 0
291 The Path That Leads To Home 07/12/2014 -- 0 0
292 Old Friends 07/12/2014 -- 0 0
293 Canning Time 07/12/2014 -- 0 0
294 On Going Home For Christmas 07/12/2014 -- 0 0
295 At The Door 07/12/2014 -- 0 0
296 The Boy That Was 07/12/2014 -- 0 0
297 Rich 07/12/2014 -- 0 0
298 The Sorrow Tugs 07/12/2014 -- 0 0
299 Greatness 07/12/2014 -- 0 0
300 Laddies 07/12/2014 -- 0 0
301 Mother's Glasses 07/12/2014 -- 0 0
302 The Hunter 07/12/2014 -- 0 0
303 Hard Knocks 07/12/2014 -- 0 0
304 The Family's Homely Man 07/15/2014 -- 0 0
305 The Little Velvet Suit 07/15/2014 -- 0 0
306 The Little Army 07/15/2014 -- 0 0
307 The Boy Soldier 07/15/2014 -- 0 0
308 The Blue Flannel Shirt 07/15/2014 -- 0 0
309 The Mother On The Sidewalk 07/15/2014 -- 0 0
310 Bribed 07/15/2014 -- 0 0
311 The Flag On The Farm 07/15/2014 -- 0 0
312 If Only I Were Santa Claus 07/15/2014 -- 0 0
313 Lemon Pie 07/15/2014 -- 0 0
314 The Pathway Of The Living 07/15/2014 -- 0 0
315 A Toast To The Men 07/15/2014 -- 0 0
316 The Chaplain 07/15/2014 -- 0 0
317 The Kick Under The Table 07/15/2014 -- 0 0
318 Father 07/15/2014 -- 0 0
319 A Father's Prayer 07/15/2014 -- 0 0
320 Things Work Out 07/15/2014 -- 0 0
321 Leader Of The Gang 07/15/2014 -- 0 0
322 The Little Orphan 07/15/2014 -- 0 0
323 The Boy And The Flag 07/15/2014 -- 0 0
324 If You Would Please Me 07/15/2014 -- 0 0
325 Life's Slacker 07/15/2014 -- 0 0
326 The Bachelor's Soliloquy 07/15/2014 -- 0 0
327 Selfishness 07/15/2014 -- 0 0
328 Reflection 08/04/2014 -- 0 0
329 Story-Time 08/04/2014 -- 0 0
330 Reflection 08/04/2014 -- 0 0
331 The Old-Fashioned Parents 08/04/2014 -- 0 0
332 At The Millennium 08/04/2014 -- 0 0
333 The Proof Of Worth 08/14/2014 -- 0 0
334 We Need A Few More Optimists 08/14/2014 -- 0 0
335 The Alarm 08/14/2014 -- 0 0
336 A Christmas Greeting 08/14/2014 -- 0 0
337 Ideals 08/14/2014 -- 0 0
338 Compensation 08/14/2014 -- 0 0
339 My Part 08/14/2014 -- 0 0
340 The Complacent Slacker 08/14/2014 -- 0 0
341 The Temple - What Makes It Of Worth 08/14/2014 -- 0 0
342 Easy Service 08/14/2014 -- 0 0
343 Drafted 08/14/2014 -- 0 0
344 Show Me! 08/14/2014 -- 0 0
345 The Girl He Left Behind 08/14/2014 -- 0 0
346 The Wrist Watch Man 08/14/2014 -- 0 0
347 He Who Serves 08/14/2014 -- 0 0
348 Grace At Evening 08/14/2014 -- 0 0
349 For Your Boy And Mine 08/14/2014 -- 0 0
350 I See You'Ve Travelled Some 08/14/2014 -- 0 0
351 The New Year 08/14/2014 -- 0 0
352 The Friendly Greeting 08/14/2014 -- 0 0
353 Taking His Place 08/14/2014 -- 0 0
354 Follow A Famous Father 08/14/2014 -- 0 0
355 Your Country Needs You 08/14/2014 -- 0 0
356 A Patriot 08/14/2014 -- 0 0
357 Envy 08/14/2014 -- 0 0
358 Revenge 07/14/2014 -- 0 0
359 Father And Son 07/14/2014 -- 0 0
360 Eternal Friendship 07/14/2014 -- 0 0
361 Purpose 07/14/2014 -- 0 0
362 Duty 07/14/2014 -- 0 0
363 Hard Work 07/14/2014 -- 0 0
364 Division 07/14/2014 -- 0 0
365 Understanding 07/14/2014 -- 0 0
366 The Joy Of A Dog 07/14/2014 -- 0 0
367 Expectation 07/14/2014 -- 0 0
368 The Price Of Joy 07/14/2014 -- 0 0
369 Roses 07/14/2014 -- 0 0
370 Real Singing 07/14/2014 -- 0 0
371 No Place To Go 07/14/2014 -- 0 0
372 Stuck 07/14/2014 -- 0 0
373 The Happy Slow Thinker 07/14/2014 -- 0 0
374 When Pa Comes Home 07/14/2014 -- 0 0
375 The Ready Artists 07/14/2014 -- 0 0
376 When Pa Counts 07/14/2014 -- 0 0
377 The Neighborly Man 07/14/2014 -- 0 0
378 The Happiest Days 07/14/2014 -- 0 0
379 The Bumps And Bruises Doctor 07/14/2014 -- 0 0
380 Mother's Day 07/14/2014 -- 0 0
381 The Sulkers 07/14/2014 -- 0 0
382 The June Couple 07/14/2014 -- 0 0
383 The Fishing Cure 07/14/2014 -- 0 0
384 The Junk Box 07/14/2014 -- 0 0
385 Promotion 07/14/2014 -- 0 0
386 House-Hunting 07/15/2014 -- 0 0
387 Autumn At The Orchard 07/15/2014 -- 0 0
388 To The Lady In The Electric 07/15/2014 -- 0 0
389 Homesick 07/15/2014 -- 0 0
390 The Real Bait 07/15/2014 -- 0 0
391 Under The Skin Of Men 07/15/2014 -- 0 0
392 The States 07/15/2014 -- 0 0
393 Ma And Her Checkbook 07/15/2014 -- 0 0
394 Guessing Time 07/15/2014 -- 0 0
395 The Princess Pat's 07/15/2014 -- 0 0
396 A Toast To Happiness 07/15/2014 -- 0 0
397 Out Of Doors 07/15/2014 -- 0 0
398 The Broken Drum 07/15/2014 -- 0 0
399 The First Steps 07/15/2014 -- 0 0
400 Pa Did It! 07/15/2014 -- 0 0
401 A Patriotic Creed 07/15/2014 -- 0 0
402 Grandpa 07/15/2014 -- 0 0
403 The Sorry Hostess 07/15/2014 -- 0 0
404 The Little Old Man 07/15/2014 -- 0 0
405 The Real Successes 07/15/2014 -- 0 0
406 As It Is 07/15/2014 -- 0 0
407 The Mother's Question 07/15/2014 -- 0 0
408 The Beauty Places 07/15/2014 -- 0 0
409 My Land 07/15/2014 -- 0 0
410 Up To The Ceiling 07/15/2014 -- 0 0
411 On Being Broke 07/15/2014 -- 0 0
412 People Like Him 07/14/2014 -- 0 0
413 Defeat 07/14/2014 -- 0 0
414 I 07/14/2014 -- 0 0
415 Challenge 07/14/2014 -- 0 0
416 The Pup 07/12/2014 -- 0 0
417 Thec Lanes Of Memory 07/12/2014 -- 0 0
418 Memorial Day 07/12/2014 -- 0 0
419 Heroes 07/12/2014 -- 0 0
420 The Unsettled Scores 08/14/2014 -- 0 0
421 Move We Adjourn 08/14/2014 -- 0 0
422 The Waiter At The Camp 08/14/2014 -- 0 0
423 His Room 08/14/2014 -- 0 0
424 America 08/14/2014 -- 0 0
425 Why We Fight 08/14/2014 -- 0 0
426 Soldierly 08/14/2014 -- 0 0
427 The Lamb Skin 08/14/2014 -- 0 0
428 The Better Job 08/14/2014 -- 0 0
429 The Change 08/14/2014 -- 0 0
430 Good Luck 08/14/2014 -- 0 0
431 The Joy To Be 08/14/2014 -- 0 0
432 Mothers And Wives 08/14/2014 -- 0 0
433 The Time For Deeds 08/14/2014 -- 0 0
434 Treasures 07/12/2014 -- 0 0
435 Spring In The Trenches 07/12/2014 -- 0 0
436 Failures 07/12/2014 -- 0 0
437 Little Master Mischievous 07/12/2014 -- 0 0
438 Story Telling 07/12/2014 -- 0 0
439 When You Know A Fellow 07/12/2014 -- 0 0
440 My Paw Said So 07/12/2014 -- 0 0
441 The Dull Road 07/12/2014 -- 0 0
442 The Gentle Gardener 07/12/2014 -- 0 0
443 The Man Who Couldn'T Save 07/12/2014 -- 0 0
444 At Sugar Camp 07/12/2014 -- 0 0
445 Preparedness 07/12/2014 -- 0 0
446 Care-Free Youth 07/12/2014 -- 0 0
447 The Home-Town 07/12/2014 -- 0 0
448 Raisin Pie 07/12/2014 -- 0 0
449 The Finest Age 07/12/2014 -- 0 0
450 The Peaceful Warriors 07/14/2014 -- 0 0
451 It Isn'T Costly 07/14/2014 -- 0 0
452 The Epicure 07/14/2014 -- 0 0
453 The Rough Little Rascal 07/14/2014 -- 0 0
454 Exempt 07/14/2014 -- 0 0
455 The Boy Enlists 07/14/2014 -- 0 0
456 A Coming Reunion 08/14/2014 -- 0 0
457 When Mother's Sewing Buttons On 08/14/2014 -- 0 0
458 All For The Best 08/14/2014 -- 0 0
459 Joys Within Reach 08/14/2014 -- 0 0
460 Life Is What We Make It 08/14/2014 -- 0 0
461 Hope 08/14/2014 -- 0 0
462 A Woman's Ways 08/14/2014 -- 0 0
463 A Convalescin' Woman 08/14/2014 -- 0 0
464 The Book Of Memory 08/14/2014 -- 0 0
465 Afraid Of His Dad 08/14/2014 -- 0 0
466 Sympathy 08/14/2014 -- 0 0
467 Little Girls 08/14/2014 -- 0 0
468 When We'Re All Alike 08/14/2014 -- 0 0
469 To A Little Girl 08/14/2014 -- 0 0
470 The Discovery Of A Soul 08/14/2014 -- 0 0
471 Love 08/14/2014 -- 0 0
472 Couldn'T Live Without You 08/14/2014 -- 0 0
473 A Wonderful World 08/14/2014 -- 0 0
474 A Feller's Hat 08/14/2014 -- 0 0
475 The Toy-Strewn Home 08/14/2014 -- 0 0
476 To An Old Friend 08/14/2014 -- 0 0
477 I Ain'T Dead Yet 08/14/2014 -- 0 0
478 Life's Single Standard 08/14/2014 -- 0 0
479 The True Man 08/14/2014 -- 0 0
480 Our Little Needs 08/14/2014 -- 0 0
481 When We Understand The Plan 08/14/2014 -- 0 0
482 Bedtime 08/14/2014 -- 0 0
483 After All Is Said And Done 08/14/2014 -- 0 0
484 The Loss Is Not So Great 08/14/2014 -- 0 0
485 Too Big A Price 08/14/2014 -- 0 0
486 The Glory Of Age 08/14/2014 -- 0 0
487 Grandma 08/14/2014 -- 0 0
488 Since I Have Done My Best 08/14/2014 -- 0 0
489 What We Can Be 08/14/2014 -- 0 0
490 The Mother Watch 08/14/2014 -- 0 0
491 Looking Back 08/14/2014 -- 0 0
492 Today 08/14/2014 -- 0 0
493 A Good Name 08/14/2014 -- 0 0
494 The Children 08/14/2014 -- 0 0
495 Satisfied With Life 08/14/2014 -- 0 0
496 The Undaunted 08/14/2014 -- 0 0
497 Golf Pride 08/14/2014 -- 0 0
498 If Those Who Love Us 08/14/2014 -- 0 0
499 The Departed 08/14/2014 -- 0 0
500 Joy 08/14/2014 -- 0 0
501 The Three Me's 08/14/2014 -- 0 0
502 The Struggle 08/14/2014 -- 0 0
503 He Has Not Lived In Vain 08/14/2014 -- 0 0
504 A Heart To Heart Talk 08/14/2014 -- 0 0
505 Be Cheerful 08/14/2014 -- 0 0
506 Becoming A Dad 08/14/2014 -- 0 0
507 Best Way To Read A Book 08/14/2014 -- 0 0
508 Little Girls Are Best 08/14/2014 -- 0 0
509 Learn To Smile 08/14/2014 -- 0 0
510 Wait Till Your Pa Comes Home 08/14/2014 -- 0 0
511 Out Of It All 08/14/2014 -- 0 0
512 At The Peace Table 08/14/2014 -- 0 0
513 Fine 08/14/2014 -- 0 0
514 The Happy Man 08/15/2014 -- 0 0
515 Practicing Time 08/15/2014 -- 0 0
516 Trouble Brings Friends 08/15/2014 -- 0 0
517 Carry On 08/15/2014 -- 0 0
518 He Should Meet A Mother There 08/15/2014 -- 0 0
519 Fly A Clean Flag 08/15/2014 -- 0 0
520 April Thoughts 08/15/2014 -- 0 0
521 Friendship 08/15/2014 -- 0 0
522 Contentment 08/15/2014 -- 0 0
523 Toys And Life 08/15/2014 -- 0 0
524 When Friends Drop In 08/15/2014 -- 0 0
525 July The Fourth, 1917 08/15/2014 -- 0 0
526 Follow The Flag 08/15/2014 -- 0 0
527 Do Your All 08/15/2014 -- 0 0
528 We Who Stay At Home 08/15/2014 -- 0 0
529 If You And I 08/15/2014 -- 0 0
530 A Song 08/15/2014 -- 0 0
531 When It's Bad To Forget 08/15/2014 -- 0 0
532 Why I'M Glad 08/15/2014 -- 0 0
533 Patriotism 08/15/2014 -- 0 0
534 Lost Opportunities 08/15/2014 -- 0 0
535 The Approach Of Christmas 08/15/2014 -- 0 0
536 Selling The Old Home 08/15/2014 -- 0 0
537 With Dog And Gun 08/15/2014 -- 0 0
538 Little Wrangles 08/15/2014 -- 0 0
539 The Responsibility Of Fatherhood 08/15/2014 -- 0 0
540 The Little Old-Fashioned Church 08/15/2014 -- 0 0
541 When We Were Kids 08/15/2014 -- 0 0
542 Dreaming 08/15/2014 -- 0 0
543 At The Cottage 08/15/2014 -- 0 0
544 The Sweetest Soul I Ever Knew 08/15/2014 -- 0 0
545 Some Day 08/15/2014 -- 0 0
546 Consolation 08/15/2014 -- 0 0
547 Don'T You Know 08/15/2014 -- 0 0
548 Alone 08/15/2014 -- 0 0
549 Aunty 08/15/2014 -- 0 0
550 My Soul And I 08/15/2014 -- 0 0
551 Under The Roof Where The Laughter Rings 08/15/2014 -- 0 0
552 Ambition 08/15/2014 -- 0 0
553 Contradictin' Joe 08/15/2014 -- 0 0
554 Aw Gee Whiz! 08/15/2014 -- 0 0
555 A Good Soldier 08/15/2014 -- 0 0
556 Beautifying The Flag 08/15/2014 -- 0 0
557 The Birth Of Love 08/15/2014 -- 0 0
558 At The Wedding 08/15/2014 -- 0 0
559 Real Lessons 08/20/2014 -- 0 0
560 Memories Of Tomorrow 08/20/2014 -- 0 0
561 Lonely 08/20/2014 -- 0 0
562 The Man Who's Down 08/20/2014 -- 0 0
563 The Green Of Michigan 08/20/2014 -- 0 0
564 They Don'T 08/20/2014 -- 0 0
565 Easter 08/20/2014 -- 0 0
566 To The Failures 08/20/2014 -- 0 0
567 The Lilacs 08/20/2014 -- 0 0
568 A Query — 08/20/2014 -- 0 0
569 Christmas Eve 08/20/2014 -- 0 0
570 The Song Of Loved Ones 08/20/2014 -- 0 0
571 The Burden Bearer 08/20/2014 -- 0 0
572 Spoiling Them 08/20/2014 -- 0 0
573 Loser And Victor 08/20/2014 -- 0 0
574 Ma And The Ouija Board 08/20/2014 -- 0 0
575 To The Men At Home 08/20/2014 -- 0 0
576 Here We Are! 08/20/2014 -- 0 0
577 A Lullaby 08/20/2014 -- 0 0
578 A Pat On The Back 08/20/2014 -- 0 0
579 Neglected 08/20/2014 -- 0 0
580 Mothers' Splendid Dreams 08/20/2014 -- 0 0
581 A Suggestion 08/20/2014 -- 0 0
582 When There's Health In The House 08/20/2014 -- 0 0
583 Keep To The Right 08/20/2014 -- 0 0
584 An Ode To Nellie 08/20/2014 -- 0 0
585 Think Happy Thoughts 08/20/2014 -- 0 0
586 A Successful Dad 08/20/2014 -- 0 0
587 A Year's New Wish 08/20/2014 -- 0 0
588 Endurance 08/20/2014 -- 0 0
589 His Example 08/20/2014 -- 0 0
590 To The Boy 08/20/2014 -- 0 0
591 What Father Knows 08/20/2014 -- 0 0
592 Mother's Job 08/20/2014 -- 0 0
593 She Powders Her Nose 08/20/2014 -- 0 0
594 Old Years And New 08/20/2014 -- 0 0
595 Safe At Home 08/20/2014 -- 0 0
596 The Honor Roll 08/20/2014 -- 0 0
597 Next Of Kin 08/20/2014 -- 0 0
598 The Christmas Box 08/20/2014 -- 0 0
599 The Boy's Adventure 08/20/2014 -- 0 0
600 Bigger Than His Dad 08/20/2014 -- 0 0
601 The Sympathetic Minister 08/20/2014 -- 0 0
602 The Shattered Dream 08/20/2014 -- 0 0
603 Trustful Ma 08/20/2014 -- 0 0
604 The Fight Worth While 08/20/2014 -- 0 0
605 The Songs Of Night 08/20/2014 -- 0 0
606 Unphilosophic 08/20/2014 -- 0 0
607 Mark Twain 08/20/2014 -- 0 0
608 Back To School 08/20/2014 -- 0 0
609 Independence Day 08/20/2014 -- 0 0
610 The Man I'M For 08/20/2014 -- 0 0
611 A Father's Tribute 08/14/2014 -- 0 0
612 It's A Boy 08/14/2014 -- 0 0
613 A Discussion 08/14/2014 -- 0 0
614 A Prayer 07/14/2014 -- 0 0
615 An Easy World 07/14/2014 -- 0 0
616 A Vow 07/14/2014 -- 0 0
617 Things That Haven'T Been Done Before 07/14/2014 -- 0 0
618 The Finer Thought 07/14/2014 -- 0 0
619 I'D Rather Be A Failure 08/14/2014 -- 0 0
620 The Call To Service 08/14/2014 -- 0 0
621 Kelly Ingram 08/14/2014 -- 0 0
622 The Things That Make A Soldier Great 08/14/2014 -- 0 0
623 So Easy 08/14/2014 -- 0 0
624 Everywhere In America 08/14/2014 -- 0 0
625 Over Here 08/14/2014 -- 0 0
626 A Father's Wish 08/14/2014 -- 0 0
627 The Chip On Your Shoulder 08/14/2014 -- 0 0
628 Give Me A Single Day 08/14/2014 -- 0 0
629 The Benefit Of Trouble 08/14/2014 -- 0 0
630 The Reason For Work 08/14/2014 -- 0 0
631 Faces 08/14/2014 -- 0 0
632 The Things You Can'T Forget 08/14/2014 -- 0 0
633 The Deeds Of Anger 08/14/2014 -- 0 0
634 From Laughter To Labor 08/14/2014 -- 0 0
635 To A Kindly Critic 08/14/2014 -- 0 0
636 The Plugger 08/14/2014 -- 0 0
637 Gossip 08/14/2014 -- 0 0
638 Don'T Worry, Little Girl 08/14/2014 -- 0 0
639 Rather Stay Home 08/14/2014 -- 0 0
640 The Contented Man 08/14/2014 -- 0 0
641 Up And Down The Lanes Of Love 08/14/2014 -- 0 0
642 Names And Faces 08/14/2014 -- 0 0
643 The Fun Of Forgiving 08/14/2014 -- 0 0
644 There Will Always Be Something To Do 08/14/2014 -- 0 0
645 The Cookie-Lady 08/14/2014 -- 0 0
646 Not A Money Debt 08/20/2014 -- 0 0
647 The Women Of The Sailors 08/20/2014 -- 0 0
648 The First Rule Of Golf 08/20/2014 -- 0 0
649 One-Sided Faith 08/20/2014 -- 0 0
650 Human Failings 08/25/2014 -- 0 0
651 He Earned His Way 08/25/2014 -- 0 0
652 The Naughty Little Fellow 08/25/2014 -- 0 0
653 The Sensible Romance Of Mildred 08/25/2014 -- 0 0
654 Worth While 08/25/2014 -- 0 0
655 A New Year's Song 08/25/2014 -- 0 0
656 A Preference 08/25/2014 -- 0 0
657 Temptation 08/25/2014 -- 0 0
658 The Right To Joy 08/25/2014 -- 0 0
659 Little Miss Laugh-A-Lot 08/25/2014 -- 0 0
660 Mary 08/25/2014 -- 0 0
661 Sticky Fingers 08/25/2014 -- 0 0
662 The Notion Of Rastus 08/25/2014 -- 0 0
663 Charms 08/25/2014 -- 0 0
664 The Joys Of Earth 08/25/2014 -- 0 0
665 True Philosophy 08/25/2014 -- 0 0
666 The Fight With Self 08/25/2014 -- 0 0
667 The Influence Of Woman 08/25/2014 -- 0 0
668 Magazine Girl 08/25/2014 -- 0 0
669 The Way To Make Friends 08/25/2014 -- 0 0
670 Buckle In 08/25/2014 -- 0 0
671 His First Long Trousers 08/25/2014 -- 0 0
672 The Don'T Believers 08/25/2014 -- 0 0
673 The Limitations Of Greatness 08/25/2014 -- 0 0
674 Reunited 08/25/2014 -- 0 0
675 For Others—and His Wife 08/25/2014 -- 0 0
676 The Glories Of The Present 08/25/2014 -- 0 0
677 The Spendthrift 08/25/2014 -- 0 0
678 Gardening 08/25/2014 -- 0 0
679 Tommy Atkins' Way 08/25/2014 -- 0 0
680 The Doubtful To-Morrow 08/25/2014 -- 0 0
681 Tonsils 08/25/2014 -- 0 0
682 The Old Wooden Tub 08/25/2014 -- 0 0
683 Tied Down 08/25/2014 -- 0 0
684 First Name Friends 08/25/2014 -- 0 0
685 Mrs. Malone And The Censor 08/25/2014 -- 0 0
686 Dr. Johnson's Picture Cow 08/25/2014 -- 0 0
687 She Mothered Five 08/25/2014 -- 0 0
688 The Cure For Weariness 08/25/2014 -- 0 0
689 A Vanished Joy 08/25/2014 -- 0 0
690 The Gold Givers 08/25/2014 -- 0 0
691 The Little Chap 08/25/2014 -- 0 0
692 The Thumbed Collar 08/25/2014 -- 0 0
693 Arcady 08/25/2014 -- 0 0
694 Play The Man 08/25/2014 -- 0 0
695 Wisdom's Haunts 08/25/2014 -- 0 0
696 A Good World 08/25/2014 -- 0 0
697 The Vote Of Thanks 08/25/2014 -- 0 0
698 Christmas Greeting 08/25/2014 -- 0 0
699 Mother Of Five 08/25/2014 -- 0 0
700 Slumberland Time 08/25/2014 -- 0 0
701 Trouble 08/25/2014 -- 0 0
702 What A Sick Woman Does 08/25/2014 -- 0 0
703 The Family Party 08/26/2014 -- 0 0
704 The Lanes Of Boyhood 08/26/2014 -- 0 0
705 His Philosophy 08/26/2014 -- 0 0
706 When Mother Made An Angel Cake 08/20/2014 -- 0 0
707 The Furnace Door 08/20/2014 -- 0 0
708 No Use Sighin' 08/20/2014 -- 0 0
709 When We Play The Fool 08/20/2014 -- 0 0
710 Just A Boy 08/20/2014 -- 0 0
711 Cleaning The Furnace 08/20/2014 -- 0 0
712 Pa And The Monthly Bills 08/20/2014 -- 0 0
713 His Santa Claus 08/20/2014 -- 0 0
714 War's Homecoming 08/20/2014 -- 0 0
715 For The Living 08/20/2014 -- 0 0
716 I'Ll Never Be Rich 08/20/2014 -- 0 0
717 The Monument Of Kindness 08/20/2014 -- 0 0
718 The Road Builder 08/20/2014 -- 0 0
719 The Man I Like 08/20/2014 -- 0 0
720 The Man Of His Word 08/20/2014 -- 0 0
721 Can'T Frighten Them 08/20/2014 -- 0 0
722 Life And Hereafter 08/20/2014 -- 0 0
723 A Place At The Top 08/20/2014 -- 0 0
724 Business 08/20/2014 -- 0 0
725 Under A Tree 08/20/2014 -- 0 0
726 Man's Experience 08/20/2014 -- 0 0
727 A Lesson From Golf 08/20/2014 -- 0 0
728 Pleasing Dad 08/20/2014 -- 0 0
729 When An Old Man Gets To Thinking 08/20/2014 -- 0 0
730 The Test 08/20/2014 -- 0 0
731 When My Ship Comes In 08/20/2014 -- 0 0
732 Along The Paths O' Glory 08/20/2014 -- 0 0
733 The Doctor 08/20/2014 -- 0 0
734 What Makes An Artist 08/20/2014 -- 0 0
735 The World And Bud 08/20/2014 -- 0 0
736 Pretending Not To See 08/20/2014 -- 0 0
737 The Age Of Ink 08/20/2014 -- 0 0
738 United 08/20/2014 -- 0 0
739 The Better Thing 08/20/2014 -- 0 0
740 A Greeting 08/20/2014 -- 0 0
741 Living Monuments 08/20/2014 -- 0 0
742 Off To School 08/20/2014 -- 0 0
743 The Path O' Little Children 08/20/2014 -- 0 0
744 The Graduation Dress 08/20/2014 -- 0 0
745 Mother Nature 08/20/2014 -- 0 0
746 They'Re Coming Back 08/20/2014 -- 0 0
747 Two Viewpoints 08/20/2014 -- 0 0
748 Jimmy 08/20/2014 -- 0 0
749 Getting Her A Valentine 08/20/2014 -- 0 0
750 The Homes Of Joy 08/20/2014 -- 0 0
751 The Average Man 08/20/2014 -- 0 0
752 The Kindergarten Miss 08/20/2014 -- 0 0
753 Similar 08/20/2014 -- 0 0
754 True 08/20/2014 -- 0 0
755 Lullaby 08/20/2014 -- 0 0
756 The Cut-Down Trousers 08/20/2014 -- 0 0
757 Bread And Jam 08/20/2014 -- 0 0
758 The Bride 08/20/2014 -- 0 0
759 The Simple Things 08/20/2014 -- 0 0
760 Golf Luck 08/20/2014 -- 0 0
761 Committee Meetings 08/20/2014 -- 0 0
762 Nothing To Laugh At 08/20/2014 -- 0 0
763 Brothers All 08/20/2014 -- 0 1
764 Bob White 08/20/2014 -- 0 0
765 To A Lady Knitting 08/20/2014 -- 0 0
766 Thoughts Of A Soldier 08/20/2014 -- 0 0
767 General Pershing 08/20/2014 -- 0 0
768 As It Looks To The Boy 08/20/2014 -- 0 0
769 The Home-Wrecker 08/20/2014 -- 0 0
770 The Baby's Feet 08/20/2014 -- 0 0
771 A Real Thriller 08/20/2014 -- 0 0
772 History Teaches 08/20/2014 -- 0 0
773 Answering Age 08/20/2014 -- 0 0
774 Old-Fashioned Folks 08/20/2014 -- 0 0
775 The Fellowship Of Books 08/14/2014 -- 0 0
776 The Flag 08/14/2014 -- 0 0
777 A Woman's Love 08/14/2014 -- 0 0
778 At Breakfast Time 07/11/2014 -- 0 0
779 Kindness 08/14/2014 -- 0 0
780 The Making Of Friends 08/14/2014 -- 0 0
781 Don'T Quit 03/24/2015 -- 0 0
782 The Call Of The Woods 08/14/2014 -- 0 0
783 The Joys Of Home 08/14/2014 -- 0 0
784 Autumn 08/14/2014 -- 0 0
785 Sittin' On The Porch 08/14/2014 -- 0 0
786 The Way To Do 08/26/2014 -- 0 0
787 Little Miss Six O'Clock 08/26/2014 -- 0 0
788 A Little The Best Of It 08/26/2014 -- 0 0
789 His Chance 08/26/2014 -- 0 0
790 Roses, Birds And Some Men 08/26/2014 -- 0 0
791 A Valentine 08/26/2014 -- 0 0
792 The Town Of Nothing-To-Do 08/26/2014 -- 0 0
793 The Rewards Of Industry 08/26/2014 -- 0 0
794 Literary Mother 08/26/2014 -- 0 0
795 Somebody Spoke A Cheering Word 08/26/2014 -- 0 0
796 The Old Days 08/26/2014 -- 0 0
797 Roses And Gasoline 08/26/2014 -- 0 0
798 A Fourth Of July Wish 08/26/2014 -- 0 0
799 The Christmas Spirit 08/26/2014 -- 0 0
800 The Change-Worker 08/26/2014 -- 0 0
801 At Dawn 08/26/2014 -- 0 0
802 The Pay Envelope 08/26/2014 -- 0 0
803 Dinner-Time 08/26/2014 -- 0 0
804 My Job 08/26/2014 -- 0 0
805 The Finest Fellowship 08/26/2014 -- 0 0
806 The Gift Of Play 08/26/2014 -- 0 0
807 The Little Woman 08/26/2014 -- 0 0
808 An Old-Fashioned Welcome 08/26/2014 -- 0 0
809 Summer Dreams 08/26/2014 -- 0 0
810 Where's Mamma? 08/26/2014 -- 0 0
811 What Home's Intended For 08/26/2014 -- 0 0
812 The Christmas Gift For Mother 08/26/2014 -- 0 0
813 Boy And His Stomach 08/26/2014 -- 0 0
814 The Simple Toilers 08/26/2014 -- 0 0
815 The Lonely Fight 08/26/2014 -- 0 0
816 Different 08/26/2014 -- 0 0
817 Ma An' Me 08/26/2014 -- 0 0
818 He Struck Me! 08/26/2014 -- 0 0
819 Fame 08/26/2014 -- 0 0
820 Tuckered Out 08/26/2014 -- 0 0
821 His Rattle He Throws On The Floor 08/26/2014 -- 0 0
822 Fixing The Shame 08/26/2014 -- 0 0
823 What Ma Said 08/26/2014 -- 0 0
824 A Scare 08/26/2014 -- 0 0
825 The Ballad Of The New Arrival 08/26/2014 -- 0 0
826 Riches 08/26/2014 -- 0 0
827 The Little Country Bus 08/26/2014 -- 0 0
828 Cornered 08/26/2014 -- 0 0
829 The Painter 08/26/2014 -- 0 0
830 Old Fashioned Remedies 08/26/2014 -- 0 0
831 Doughnuts And Cider 08/26/2014 -- 0 0
832 Sunday In The Country 08/26/2014 -- 0 1
833 The Rich Man's Woes 08/26/2014 -- 0 0
834 Winds Of The Morning 08/26/2014 -- 0 0
835 The Boy Mind 08/26/2014 -- 0 0
836 The Farmer Talks 08/26/2014 -- 0 0
837 The Summer Argument 08/26/2014 -- 0 0
838 My Plan 08/26/2014 -- 0 0
839 Out Of The Day 08/26/2014 -- 0 0
840 Nothing Unusual 08/26/2014 -- 0 0
841 The Homecomer's Song 08/26/2014 -- 0 0
842 Other's Successes 08/27/2014 -- 0 0
843 The Cost Of Praise 08/27/2014 -- 0 0
844 What To Do 08/27/2014 -- 0 0
845 The Way Of The World 08/27/2014 -- 0 0
846 The Summer Girl 08/27/2014 -- 0 0
847 After A Proposal 08/27/2014 -- 0 0
848 Songs Of Gloom 08/27/2014 -- 0 0
849 My Word! 08/27/2014 -- 0 0
850 The March O' Man 08/27/2014 -- 0 0
851 Father's Chore 08/27/2014 -- 0 0
852 Living Flowers 08/27/2014 -- 0 0
853 His Dog 08/27/2014 -- 0 0
854 Thoughts Of A Father 08/27/2014 -- 0 0
855 The Evening Prayer 08/27/2014 -- 0 0
856 The Comedian 08/27/2014 -- 0 0
857 Mother's Party Dress 08/27/2014 -- 0 0
858 The Lost Purse 08/27/2014 -- 0 0
859 Autumn Evenings 08/27/2014 -- 0 0
860 Copy Paper 08/27/2014 -- 0 0
861 The Cure 08/27/2014 -- 0 0
862 Answering The Usual Questions 08/27/2014 -- 0 0
863 Capital Punishment 08/27/2014 -- 0 0
864 The Time For Brotherhood 08/27/2014 -- 0 0
865 Tell Him Why 08/27/2014 -- 0 0
866 Jes' Wonderin'! 08/27/2014 -- 0 0
867 The Value Of A Telephone 08/27/2014 -- 0 0
868 Sacrifices 08/27/2014 -- 0 0
869 The Toiler 08/27/2014 -- 0 0
870 The Child World 08/27/2014 -- 0 0
871 The Limit 08/27/2014 -- 0 0
872 Neil Snow 08/27/2014 -- 0 0
873 The Disgrace Of Poverty 08/27/2014 -- 0 0
874 The Gentle Hand Of Women Folks 08/27/2014 -- 0 0
875 Fishing Reasons 08/27/2014 -- 0 0
876 Man And Lathe 08/27/2014 -- 0 0
877 If I Were Santa Claus 08/27/2014 -- 0 0
878 The Bank Clerk 08/27/2014 -- 0 0
879 The Killing Place 08/27/2014 -- 0 0
880 Found Out 08/27/2014 -- 0 0
881 You And Your Body 08/27/2014 -- 0 0
882 Lillian's Reading 08/27/2014 -- 0 0
883 Chums 08/27/2014 -- 0 0
884 Safe Conduct 08/27/2014 -- 0 0
885 Tinkerin' At Home 08/27/2014 -- 0 0
886 Being Dad On Christmas Eve 08/27/2014 -- 0 0
887 Our Country 08/27/2014 -- 0 0
888 Bud Discusses Cleanliness 08/27/2014 -- 0 0
889 Pleasure's Signs 08/27/2014 -- 0 0
890 St. Valentine's Day 08/27/2014 -- 0 0
891 When The Minister Calls 08/27/2014 -- 0 0
892 The Song Of The Builder 08/27/2014 -- 0 0
893 The Lucky Man 08/27/2014 -- 0 0
894 Old Mister Laughter 08/27/2014 -- 0 0
895 The Wide Outdoors 08/27/2014 -- 0 0
896 The Spoiler 08/27/2014 -- 0 0
897 George Moir Black 08/27/2014 -- 0 0
898 Real Help 08/27/2014 -- 0 0
899 Answering The Grumblers 08/27/2014 -- 0 0
900 Troubles 08/27/2014 -- 0 0
901 Strange 08/27/2014 -- 0 0
902 My Proud Pa 08/27/2014 -- 0 0
903 Welcoming The New Year 08/27/2014 -- 0 0
904 ‘erbert's H'Opinion 08/27/2014 -- 0 0
905 The Jedge Of Bowie County 08/27/2014 -- 0 0
906 Song Of The Many 08/27/2014 -- 0 0
907 Down The Lanes Of August 08/27/2014 -- 0 0
908 The Whiners 08/27/2014 -- 0 0
909 Let's Go 08/27/2014 -- 0 0
910 Food, Clothes And Drink 08/27/2014 -- 0 0
911 The Tempters 08/27/2014 -- 0 0
912 The Neighbors 08/27/2014 -- 0 0
913 Good Friday 08/27/2014 -- 0 0
914 The Choir At Pixley 08/27/2014 -- 0 0
915 Comradeship 08/27/2014 -- 0 0
916 The Bank Roll 08/27/2014 -- 0 0
917 On Station Farewells 08/27/2014 -- 0 0
918 The Dreams Of Youth 08/27/2014 -- 0 0
919 United States 08/27/2014 -- 0 0
920 Cliffs Of Scotland 08/27/2014 -- 0 0
921 If I Had Youth 08/27/2014 -- 0 0
922 We'Re Dreamers All 08/27/2014 -- 0 0
923 Pa Discusses Economy 08/27/2014 -- 0 0
924 Little Fellow 08/27/2014 -- 0 0
925 The Brave Men 08/27/2014 -- 0 0
926 Glad 08/27/2014 -- 0 0
927 King 08/27/2014 -- 0 0
928 Lines To The Wash Woman 08/27/2014 -- 0 0
929 Punishment 08/27/2014 -- 0 0
930 Hubbard And Pelletier 08/27/2014 -- 0 0
931 Fishin'-Hunger 08/27/2014 -- 0 0
932 When The Dressmaker Comes 08/27/2014 -- 0 0
933 The Bright Side 08/27/2014 -- 0 0
934 An Uncle 08/27/2014 -- 0 0
935 The Dream Days 08/27/2014 -- 0 0
936 September 08/27/2014 -- 0 1
937 The Peevish Man 08/27/2014 -- 0 0
938 When Pa Gets Back 08/27/2014 -- 0 0
939 The Card Club's First Meeting 08/27/2014 -- 0 0
940 The New Year's Caller 08/27/2014 -- 0 0
941 The After-Dinner Smoke 08/27/2014 -- 0 0
942 At The Summer Cottage 08/27/2014 -- 0 0
943 The Old-Fashioned Cooks 08/27/2014 -- 0 0
944 My Big Brother 08/27/2014 -- 0 0
945 The Right Family 08/27/2014 -- 0 0
946 Shut-Ins 08/27/2014 -- 0 0
947 The Tramp 08/27/2014 -- 0 0
948 The Father Of The Man 08/27/2014 -- 0 0
949 Snooping 'Round 08/27/2014 -- 0 0
950 Little Fishermen 08/27/2014 -- 0 0
951 An Apple Tree In France 08/27/2014 -- 0 0
952 Only A Building 08/27/2014 -- 0 0
953 Your Caddie And You 08/27/2014 -- 0 0
954 St. Louis: A Song Of The City 09/02/2014 -- 0 0
955 The Peaks Of Valor 09/02/2014 -- 0 0
956 Where Children Play 09/02/2014 -- 0 0
957 The Willing Horse 09/02/2014 -- 0 0
958 Green Apple Time 09/02/2014 -- 0 1
959 When Ma Wants Something New 09/02/2014 -- 0 0
960 Dan Mcgann Declares Himself 09/02/2014 -- 0 0
961 Dreading 09/02/2014 -- 0 0
962 Happiness 09/02/2014 -- 0 0
963 Now And Then 09/02/2014 -- 0 0
964 A Personal View Of War 09/02/2014 -- 0 0
965 The Joy Of Getting Back 09/02/2014 -- 0 0
966 Queer Ebenezer 09/02/2014 -- 0 0
967 The Lanes Of Apple Bloom 09/02/2014 -- 0 0
968 Warning The Carpenter 09/02/2014 -- 0 0
969 Little Marie 09/02/2014 -- 0 0
970 Not Crossing Bridges 09/02/2014 -- 0 0
971 Henry Ford's Offhand Way 09/02/2014 -- 0 0
972 The Worry-Chaser 09/02/2014 -- 0 0
973 Out In The Open 09/02/2014 -- 0 0
974 Pixley Folks 09/02/2014 -- 0 0
975 Contrary Sary 09/02/2014 -- 0 0
976 Out At Pelletier's 09/02/2014 -- 0 0
977 The Panama Canal 09/02/2014 -- 0 0
978 Be A Friend 12/08/2014 -- 0 0
979 Bravery 08/20/2014 -- 0 0
[Hata Bildir]